McNary Field
KSLE : now visible

Airfield :











YOU CAN JOIN US ON...

 
LOGIN :

Register | Disclaimer

   EN    FR    IT 

 









Legend :    VFR   Marginal VFR   IFR   Intensive IFR   Very Intensive IFR
Visi :
Ceiling :
>= 8 km
>= 3000ft
5 to 8 km
1000 to 3000 ft
1500m to 5 km
500 to 1000 ft
800 to 1500m
200 to 500 ft
< 800m
< 200 ft
Symbols :   Thunderstorms  Fog  Heavy snow  Heavy precipitations  Wind > 20 kt






- Airport Elevation : 214 ft


KSLE - McNary Field

CURRENT METAR :
  • 250556Z AUTO 34008KT 10SM CLR 18/11 A2996 RMK AO2 SLP144 T01830106 10267 20183 53006

EXPIRED METARs :
  • 250456Z AUTO 02006KT 10SM CLR 21/09 A2996 RMK AO2 SLP142 T02060094
  • 250356Z 03007KT 10SM CLR 23/10 A2994 RMK AO2 SLP138 T02280100
  • 250256Z 03007KT 10SM CLR 25/09 A2994 RMK AO2 SLP139 T02500094 55006
  • 250156Z 01009KT 10SM CLR 26/08 A2994 RMK AO2 SLP137 T02610083

TAF KSLE
Valid from the 25 at 06:00 until the 26 at 06:00 UTC


250520Z 2506/2606 36006KT P6SM SKC
KZSE FIR / North America



MET'MAP, your aeronautical weather chart ! - Copyright ORBIFLY December 2007 - Disclaimer

ORBIFLY MET'MAP TEAM :

Programming & Development : Alexandra Zaïnal
Original concept : Baudouin d'Aumeries
Technical & hardware support : Manuel Goepfert
Assistance : Marc-Olivier Méhu




SOURCES & CREDITS :

   NOAA       Earth
Advisory